Time;durP1;ratioP1;P1;durP2;ratioP2;P2;SDS_P1;SDS_P2;PMS_P1;PMS_P2;Temp;Humidity;BMP_temperature;BMP_pressure;BME280_temperature;BME280_humidity;BME280_pressure;Samples;Min_cycle;Max_cycle;Signal;HPM_P1;HPM_P2
2022/08/19 00:00:30;;;;;;;15.40;13.33;;;;;;;18.14;100.00;98345.09;4953525;28;20268;-54
2022/08/19 00:02:57;;;;;;;16.80;14.10;;;;;;;18.17;100.00;98338.56;4952520;28;20249;-53
2022/08/19 00:05:24;;;;;;;17.20;14.50;;;;;;;18.21;100.00;98339.78;4960777;28;20239;-52
2022/08/19 00:07:52;;;;;;;17.40;14.30;;;;;;;18.23;100.00;98327.16;4953701;28;20227;-53
2022/08/19 00:10:20;;;;;;;15.43;13.83;;;;;;;18.22;100.00;98336.09;4960120;28;20266;-53
2022/08/19 00:12:46;;;;;;;16.23;13.87;;;;;;;18.18;100.00;98326.97;4957610;28;20236;-52
2022/08/19 00:15:16;;;;;;;16.83;15.07;;;;;;;18.18;100.00;98340.19;4953119;28;20236;-54
2022/08/19 00:17:45;;;;;;;18.80;15.13;;;;;;;18.15;100.00;98326.38;4957263;28;20699;-51
2022/08/19 00:20:17;;;;;;;18.70;14.43;;;;;;;18.15;100.00;98334.28;4959846;28;20243;-51
2022/08/19 00:23:04;;;;;;;16.63;14.07;;;;;;;18.16;100.00;98327.19;4953246;28;20241;-51
2022/08/19 00:25:31;;;;;;;18.27;15.47;;;;;;;18.17;100.00;98336.75;4961434;28;20235;-51
2022/08/19 00:27:58;;;;;;;16.83;14.27;;;;;;;18.23;100.00;98335.09;4951633;28;20240;-51
2022/08/19 00:30:25;;;;;;;20.87;15.10;;;;;;;18.28;100.00;98330.00;4957415;28;20286;-51
2022/08/19 00:32:54;;;;;;;20.63;14.50;;;;;;;18.37;100.00;98339.31;4948497;28;20301;-51
2022/08/19 00:35:20;;;;;;;19.57;14.63;;;;;;;18.37;100.00;98336.69;4959855;28;20236;-52
2022/08/19 00:37:48;;;;;;;18.97;15.70;;;;;;;18.44;100.00;98337.47;4959311;28;20288;-51
2022/08/19 00:40:19;;;;;;;18.80;15.23;;;;;;;18.48;100.00;98327.31;4957744;28;20239;-53
2022/08/19 00:42:46;;;;;;;17.90;16.00;;;;;;;18.48;100.00;98318.53;4959219;28;20232;-51
2022/08/19 00:45:17;;;;;;;21.20;15.23;;;;;;;18.48;100.00;98302.69;4950759;28;20233;-51
2022/08/19 00:47:44;;;;;;;18.13;14.67;;;;;;;18.51;100.00;98295.16;4958949;28;20223;-52
2022/08/19 00:50:15;;;;;;;18.83;15.10;;;;;;;18.54;100.00;98297.38;4953754;28;20243;-53
2022/08/19 00:52:45;;;;;;;17.70;14.37;;;;;;;18.55;100.00;98314.84;4957143;28;20643;-51
2022/08/19 00:55:18;;;;;;;17.90;15.60;;;;;;;18.56;100.00;98326.25;4954896;28;20240;-53
2022/08/19 00:57:48;;;;;;;17.07;14.77;;;;;;;18.54;100.00;98333.56;4959325;28;20239;-54
2022/08/19 01:00:18;;;;;;;17.50;15.13;;;;;;;18.53;100.00;98332.78;4953720;28;20239;-51
2022/08/19 01:02:46;;;;;;;18.00;15.30;;;;;;;18.55;100.00;98330.69;4956109;28;20225;-51
2022/08/19 01:05:18;;;;;;;16.97;15.13;;;;;;;18.57;100.00;98335.78;4961660;28;20704;-52
2022/08/19 01:07:45;;;;;;;17.00;14.97;;;;;;;18.58;100.00;98326.84;4955881;28;20607;-54
2022/08/19 01:10:15;;;;;;;19.77;15.93;;;;;;;18.58;100.00;98337.41;4951900;28;20241;-51
2022/08/19 01:12:43;;;;;;;22.70;16.37;;;;;;;18.58;100.00;98330.28;4949809;28;20255;-52
2022/08/19 01:15:14;;;;;;;17.87;16.00;;;;;;;18.65;100.00;98327.63;4962395;28;20247;-51
2022/08/19 01:17:42;;;;;;;16.67;14.53;;;;;;;18.61;100.00;98315.84;4968645;28;20233;-51
2022/08/19 01:20:12;;;;;;;17.77;15.20;;;;;;;18.55;100.00;98324.63;4964289;28;20239;-51
2022/08/19 01:22:44;;;;;;;16.07;14.37;;;;;;;18.52;100.00;98325.88;4976001;28;20239;-53
2022/08/19 01:25:11;;;;;;;16.13;14.53;;;;;;;18.48;100.00;98316.72;4976385;28;20314;-51
2022/08/19 01:27:39;;;;;;;18.90;15.37;;;;;;;18.44;100.00;98318.16;4972409;28;20263;-51
2022/08/19 01:30:08;;;;;;;19.60;15.70;;;;;;;18.38;100.00;98327.72;4981027;28;20235;-52
2022/08/19 01:32:35;;;;;;;17.73;14.23;;;;;;;18.34;100.00;98329.16;4975448;28;21136;-52
2022/08/19 01:35:02;;;;;;;18.93;15.07;;;;;;;18.35;100.00;98330.78;4966826;28;20263;-53
2022/08/19 01:37:30;;;;;;;17.60;15.80;;;;;;;18.37;100.00;98322.66;4961927;28;20238;-51
2022/08/19 01:39:58;;;;;;;18.83;15.27;;;;;;;18.31;100.00;98313.72;4972463;28;20244;-54
2022/08/19 01:42:25;;;;;;;17.37;14.73;;;;;;;18.27;100.00;98321.28;4987188;28;20330;-54
2022/08/19 01:44:52;;;;;;;16.90;15.20;;;;;;;18.20;100.00;98315.19;4971529;28;20708;-50
2022/08/19 01:47:19;;;;;;;17.73;14.77;;;;;;;18.17;100.00;98317.44;4964370;28;21542;-52
2022/08/19 01:49:46;;;;;;;16.10;14.40;;;;;;;18.16;100.00;98316.63;4974138;28;20568;-52
2022/08/19 01:52:12;;;;;;;20.17;15.00;;;;;;;18.15;100.00;98317.66;4960421;28;20239;-54
2022/08/19 01:54:39;;;;;;;17.83;15.10;;;;;;;18.18;100.00;98316.41;4972520;28;20242;-52
2022/08/19 01:57:11;;;;;;;18.07;15.03;;;;;;;18.15;100.00;98315.00;4974450;28;20268;-51
2022/08/19 01:59:40;;;;;;;17.00;14.93;;;;;;;18.14;100.00;98318.66;4969329;28;20333;-54
2022/08/19 02:02:08;;;;;;;20.27;16.30;;;;;;;18.13;100.00;98317.03;4974781;28;20232;-53
2022/08/19 02:04:35;;;;;;;17.80;15.17;;;;;;;18.15;100.00;98317.66;4980037;28;20230;-53
2022/08/19 02:07:02;;;;;;;20.03;15.20;;;;;;;18.19;100.00;98315.38;4967273;28;20258;-54
2022/08/19 02:09:28;;;;;;;18.90;15.63;;;;;;;18.22;100.00;98313.16;4981693;28;20275;-54
2022/08/19 02:11:55;;;;;;;24.13;16.23;;;;;;;18.25;100.00;98319.84;4990922;28;20257;-53
2022/08/19 02:14:23;;;;;;;17.67;15.77;;;;;;;18.29;100.00;98313.13;4966735;28;20250;-54
2022/08/19 02:16:50;;;;;;;18.80;16.07;;;;;;;18.41;100.00;98311.47;4976549;28;20301;-54
2022/08/19 02:19:17;;;;;;;18.17;15.93;;;;;;;18.41;100.00;98308.81;4964551;28;20234;-51
2022/08/19 02:21:44;;;;;;;16.77;14.97;;;;;;;18.42;100.00;98304.34;4973818;28;20254;-52
2022/08/19 02:24:12;;;;;;;17.63;15.60;;;;;;;18.45;100.00;98303.94;4979355;28;20321;-51
2022/08/19 02:26:38;;;;;;;20.23;15.33;;;;;;;18.44;100.00;98302.31;4975033;28;20246;-54
2022/08/19 02:29:05;;;;;;;17.30;15.30;;;;;;;18.47;100.00;98316.91;4976519;28;20235;-54
2022/08/19 02:31:33;;;;;;;18.50;16.17;;;;;;;18.50;100.00;98319.16;4978782;28;20318;-52
2022/08/19 02:34:00;;;;;;;23.87;17.27;;;;;;;18.49;100.00;98320.16;4961975;28;20235;-51
2022/08/19 02:36:27;;;;;;;18.57;14.90;;;;;;;18.50;100.00;98316.50;4962928;28;20229;-53
2022/08/19 02:38:54;;;;;;;18.60;15.63;;;;;;;18.50;100.00;98317.34;4975383;28;20323;-52
2022/08/19 02:41:23;;;;;;;18.03;16.13;;;;;;;18.51;100.00;98313.66;4970015;28;20264;-51
2022/08/19 02:43:50;;;;;;;19.00;16.40;;;;;;;18.56;100.00;98316.47;4970263;28;20315;-52
2022/08/19 02:46:20;;;;;;;20.47;16.50;;;;;;;18.57;100.00;98315.44;4973027;28;20282;-53
2022/08/19 02:48:50;;;;;;;16.87;15.00;;;;;;;18.59;100.00;98315.25;4967278;28;20230;-51
2022/08/19 02:51:18;;;;;;;19.40;16.37;;;;;;;18.61;100.00;98315.03;4965075;28;20231;-52
2022/08/19 02:53:45;;;;;;;20.43;16.13;;;;;;;18.62;100.00;98316.66;4968726;28;20230;-51
2022/08/19 02:56:12;;;;;;;21.20;15.63;;;;;;;18.64;100.00;98312.78;4973378;28;20308;-51
2022/08/19 02:58:39;;;;;;;17.83;15.93;;;;;;;18.65;100.00;98319.69;4962430;28;20337;-51
2022/08/19 03:01:06;;;;;;;20.47;16.10;;;;;;;18.67;100.00;98316.81;4975035;28;20275;-51
2022/08/19 03:03:33;;;;;;;17.83;15.30;;;;;;;18.67;100.00;98312.38;4978363;28;20290;-51
2022/08/19 03:06:10;;;;;;;16.67;14.97;;;;;;;18.70;100.00;98316.41;4973405;28;20318;-52
2022/08/19 03:08:38;;;;;;;17.33;15.53;;;;;;;18.70;100.00;98311.94;4965656;28;20318;-54
2022/08/19 03:11:05;;;;;;;17.53;14.73;;;;;;;18.74;100.00;98320.25;4977063;28;20243;-53
2022/08/19 03:13:32;;;;;;;17.47;15.37;;;;;;;18.72;100.00;98307.25;4976096;28;20321;-50
2022/08/19 03:15:59;;;;;;;18.97;16.67;;;;;;;18.76;100.00;98317.41;4971699;28;20240;-51
2022/08/19 03:18:26;;;;;;;20.63;17.07;;;;;;;18.77;100.00;98309.25;4973099;28;20226;-52
2022/08/19 03:20:54;;;;;;;23.33;18.87;;;;;;;18.80;100.00;98313.31;4976464;28;20225;-51
2022/08/19 03:23:23;;;;;;;23.23;17.93;;;;;;;18.79;100.00;98312.50;4977198;28;20321;-51
2022/08/19 03:25:53;;;;;;;23.93;18.17;;;;;;;18.84;100.00;98317.16;4977524;28;20230;-51
2022/08/19 03:28:21;;;;;;;22.83;19.33;;;;;;;18.86;100.00;98330.97;4974940;28;20810;-50
2022/08/19 03:30:59;;;;;;;22.13;18.07;;;;;;;18.83;100.00;98334.06;4969277;28;20662;-52
2022/08/19 03:33:26;;;;;;;21.97;17.87;;;;;;;18.81;100.00;98334.25;4977355;28;20733;-51
2022/08/19 03:36:07;;;;;;;22.60;18.87;;;;;;;18.78;100.00;98334.66;4974279;28;20715;-51
2022/08/19 03:38:37;;;;;;;22.40;18.97;;;;;;;18.79;100.00;98340.78;4974734;28;20587;-51
2022/08/19 03:41:07;;;;;;;22.33;18.93;;;;;;;18.78;100.00;98336.50;4973963;28;20317;-53
2022/08/19 03:43:35;;;;;;;24.77;20.03;;;;;;;18.78;100.00;98341.81;4964750;28;20234;-52
2022/08/19 03:46:04;;;;;;;24.37;19.50;;;;;;;18.77;100.00;98338.34;4978785;28;20226;-51
2022/08/19 03:48:31;;;;;;;22.77;20.13;;;;;;;18.79;100.00;98338.13;4975629;28;20265;-51
2022/08/19 03:50:59;;;;;;;25.67;20.47;;;;;;;18.84;100.00;98339.13;4969309;28;20262;-52
2022/08/19 03:53:27;;;;;;;25.30;18.47;;;;;;;18.80;100.00;98337.91;4971723;28;20317;-53
2022/08/19 03:55:57;;;;;;;24.30;19.03;;;;;;;18.79;100.00;98340.78;4970833;28;20237;-51
2022/08/19 03:58:24;;;;;;;20.90;16.97;;;;;;;18.76;100.00;98341.19;4967612;28;20972;-51
2022/08/19 04:00:51;;;;;;;20.57;17.10;;;;;;;18.73;100.00;98342.41;4966017;28;20806;-54
2022/08/19 04:03:18;;;;;;;22.80;18.97;;;;;;;18.70;100.00;98343.66;4973786;28;20267;-50
2022/08/19 04:05:47;;;;;;;21.07;17.73;;;;;;;18.72;100.00;98346.09;4975177;28;20306;-54
2022/08/19 04:08:20;;;;;;;24.50;17.60;;;;;;;18.71;100.00;98347.94;4978745;28;20255;-53
2022/08/19 04:10:49;;;;;;;21.83;17.03;;;;;;;18.72;100.00;98351.38;4965517;28;20221;-54
2022/08/19 04:13:18;;;;;;;20.60;16.83;;;;;;;18.71;100.00;98352.41;4962322;28;20230;-53
2022/08/19 04:15:46;;;;;;;22.90;17.47;;;;;;;18.71;100.00;98345.28;4957800;28;20224;-53
2022/08/19 04:18:13;;;;;;;19.47;16.77;;;;;;;18.69;100.00;98349.97;4965587;28;20679;-51
2022/08/19 04:20:45;;;;;;;21.70;18.97;;;;;;;18.72;100.00;98349.56;4969806;28;20242;-53
2022/08/19 04:23:12;;;;;;;26.57;20.20;;;;;;;18.73;100.00;98342.41;4978306;28;20229;-54
2022/08/19 04:25:40;;;;;;;23.53;19.33;;;;;;;18.80;100.00;98352.97;4978763;28;20230;-53
2022/08/19 04:28:09;;;;;;;27.40;20.70;;;;;;;18.78;100.00;98344.44;4978487;28;20318;-51
2022/08/19 04:30:41;;;;;;;26.80;21.47;;;;;;;18.80;100.00;98345.84;4967643;28;20232;-51
2022/08/19 04:33:09;;;;;;;26.33;20.73;;;;;;;18.74;100.00;98344.88;4968999;28;20230;-52
2022/08/19 04:35:38;;;;;;;22.77;19.20;;;;;;;18.71;100.00;98347.94;4978173;28;20310;-54
2022/08/19 04:38:05;;;;;;;21.70;18.40;;;;;;;18.66;100.00;98350.41;4973497;28;20255;-54
2022/08/19 04:43:32;;;;;;;21.60;17.70;;;;;;;18.61;100.00;98342.28;4916071;29;20254;-53
2022/08/19 04:46:05;;;;;;;24.00;18.70;;;;;;;18.63;100.00;98347.34;4912846;29;20276;-54
2022/08/19 04:48:32;;;;;;;21.20;19.00;;;;;;;18.64;100.00;98346.31;4943800;28;20445;-51
2022/08/19 04:50:59;;;;;;;20.80;18.20;;;;;;;18.63;100.00;98350.81;4978714;28;20361;-54
2022/08/19 04:53:28;;;;;;;18.87;16.83;;;;;;;18.65;100.00;98354.06;4969376;28;20323;-53
2022/08/19 04:55:56;;;;;;;17.17;15.37;;;;;;;18.65;100.00;98367.28;4974961;28;20233;-51
2022/08/19 04:58:23;;;;;;;18.70;16.27;;;;;;;18.68;100.00;98366.03;4967031;28;20229;-53
2022/08/19 05:00:50;;;;;;;19.83;16.00;;;;;;;18.68;100.00;98366.84;4971830;28;20334;-51
2022/08/19 05:03:18;;;;;;;21.33;16.63;;;;;;;18.69;100.00;98367.66;4971380;28;20240;-54
2022/08/19 05:05:48;;;;;;;21.10;15.60;;;;;;;18.76;100.00;98367.63;4972413;28;20231;-52
2022/08/19 05:08:19;;;;;;;23.03;18.90;;;;;;;18.78;100.00;98379.63;4976850;28;20298;-50
2022/08/19 05:10:47;;;;;;;21.47;18.10;;;;;;;18.84;100.00;98377.97;4969050;28;20798;-51
2022/08/19 05:13:14;;;;;;;20.20;16.73;;;;;;;18.87;100.00;98380.19;4972757;28;20284;-51
2022/08/19 05:15:41;;;;;;;28.07;21.80;;;;;;;18.88;100.00;98387.91;4962770;28;20249;-54
2022/08/19 05:23:40;;;;;;;23.60;20.10;;;;;;;19.03;100.00;98392.97;4974393;28;20242;-52
2022/08/19 05:26:09;;;;;;;26.87;22.03;;;;;;;19.08;100.00;98394.16;4982460;28;20255;-53
2022/08/19 05:28:36;;;;;;;23.97;18.90;;;;;;;19.14;100.00;98407.34;4971826;28;20296;-51
2022/08/19 05:31:02;;;;;;;26.43;20.63;;;;;;;19.18;100.00;98415.66;4975187;28;20694;-54
2022/08/19 05:33:29;;;;;;;25.60;22.07;;;;;;;19.21;100.00;98415.25;4976358;28;20708;-51
2022/08/19 05:35:58;;;;;;;27.90;22.03;;;;;;;19.24;100.00;98412.16;4966668;28;20281;-54
2022/08/19 05:38:27;;;;;;;29.50;23.70;;;;;;;19.29;100.00;98419.50;4976353;28;20326;-54
2022/08/19 05:40:53;;;;;;;27.43;22.53;;;;;;;19.31;100.00;98417.44;4962339;28;20236;-53
2022/08/19 05:43:20;;;;;;;28.00;22.67;;;;;;;19.34;100.00;98438.19;4977960;28;20324;-51
2022/08/19 05:45:47;;;;;;;24.57;20.33;;;;;;;19.32;100.00;98430.44;4981208;28;20246;-54
2022/08/19 05:48:14;;;;;;;27.07;21.93;;;;;;;19.35;100.00;98431.03;4980192;28;20234;-52
2022/08/19 05:50:42;;;;;;;28.07;21.17;;;;;;;19.34;100.00;98427.59;4976624;28;20242;-51
2022/08/19 05:53:10;;;;;;;22.40;18.87;;;;;;;19.41;100.00;98431.03;4969895;28;20320;-53
2022/08/19 05:55:38;;;;;;;26.37;20.27;;;;;;;19.43;100.00;98421.03;4966478;28;20348;-52
2022/08/19 05:58:07;;;;;;;31.50;24.70;;;;;;;19.31;100.00;98430.66;4979910;28;20241;-54
2022/08/19 06:00:34;;;;;;;30.97;23.50;;;;;;;19.33;100.00;98431.28;4975357;28;20253;-54
2022/08/19 06:03:02;;;;;;;31.57;23.60;;;;;;;19.37;100.00;98429.00;4976479;28;20705;-51
2022/08/19 06:05:29;;;;;;;29.73;23.80;;;;;;;19.37;100.00;98429.00;4982071;28;20247;-54
2022/08/19 06:07:56;;;;;;;27.97;23.03;;;;;;;19.40;100.00;98425.91;4976403;28;20738;-51
2022/08/19 06:10:25;;;;;;;29.67;24.33;;;;;;;19.42;100.00;98424.69;4972157;28;20326;-51
2022/08/19 06:12:53;;;;;;;28.97;22.43;;;;;;;19.52;100.00;98429.50;4967050;28;20252;-51
2022/08/19 06:15:19;;;;;;;29.73;24.40;;;;;;;19.49;100.00;98437.09;4967903;28;20286;-53
2022/08/19 06:17:46;;;;;;;27.17;21.60;;;;;;;19.52;100.00;98434.81;4978497;28;20233;-52
2022/08/19 06:20:17;;;;;;;38.10;23.90;;;;;;;19.56;100.00;98446.59;4979839;28;20648;-54
2022/08/19 06:22:46;;;;;;;27.90;20.87;;;;;;;19.52;100.00;98450.69;4968581;28;20269;-52
2022/08/19 06:25:14;;;;;;;31.17;22.87;;;;;;;19.43;100.00;98451.97;4978318;28;20220;-51
2022/08/19 06:27:43;;;;;;;33.97;23.80;;;;;;;19.47;100.00;98459.28;4974924;28;20250;-52
2022/08/19 06:30:11;;;;;;;27.20;22.37;;;;;;;19.54;100.00;98453.13;4979653;28;20235;-54
2022/08/19 06:32:38;;;;;;;28.33;21.77;;;;;;;19.64;100.00;98452.66;4981477;28;20582;-51
2022/08/19 06:35:06;;;;;;;32.43;23.97;;;;;;;19.64;100.00;98455.31;4971704;28;20239;-51
2022/08/19 06:37:33;;;;;;;24.00;19.57;;;;;;;19.78;100.00;98462.13;4961900;28;20316;-52
2022/08/19 06:40:00;;;;;;;29.87;20.50;;;;;;;19.83;100.00;98462.31;4972935;28;20297;-52
2022/08/19 06:42:26;;;;;;;31.07;20.30;;;;;;;19.94;100.00;98462.66;4978511;28;20239;-51
2022/08/19 06:44:55;;;;;;;26.67;20.80;;;;;;;20.06;100.00;98460.94;4978975;28;20591;-52
2022/08/19 06:47:22;;;;;;;28.17;21.37;;;;;;;20.11;98.51;98463.75;4977121;28;20254;-53
2022/08/19 06:49:49;;;;;;;27.17;20.87;;;;;;;20.16;98.48;98466.53;4975224;28;20240;-51
2022/08/19 06:52:15;;;;;;;24.17;19.63;;;;;;;20.23;97.87;98470.97;4972551;28;20236;-53
2022/08/19 06:54:43;;;;;;;26.83;21.10;;;;;;;20.21;97.08;98468.53;4970287;28;20634;-51
2022/08/19 06:57:14;;;;;;;26.03;21.40;;;;;;;20.25;97.32;98458.31;4971254;28;20688;-50
2022/08/19 06:59:41;;;;;;;28.93;22.23;;;;;;;20.31;96.94;98466.22;4967431;28;20273;-53
2022/08/19 07:02:09;;;;;;;27.00;22.03;;;;;;;20.37;96.52;98467.16;4971532;28;20240;-51
2022/08/19 07:04:38;;;;;;;27.57;21.53;;;;;;;20.39;96.93;98472.25;4976184;28;20786;-52
2022/08/19 07:07:07;;;;;;;30.00;23.00;;;;;;;20.36;95.31;98476.16;4973618;28;20797;-50
2022/08/19 07:09:36;;;;;;;28.47;22.50;;;;;;;20.29;97.05;98476.22;4973365;28;20234;-51
2022/08/19 07:12:05;;;;;;;29.70;22.53;;;;;;;20.11;98.15;98476.16;4962607;28;20329;-54
2022/08/19 07:14:31;;;;;;;26.47;21.70;;;;;;;20.16;97.54;98476.34;4962471;28;20262;-51
2022/08/19 07:16:58;;;;;;;24.97;21.07;;;;;;;20.26;98.44;98468.72;4958583;28;20231;-51
2022/08/19 07:19:29;;;;;;;27.87;21.20;;;;;;;20.40;95.47;98474.69;4976941;28;20349;-52
2022/08/19 07:21:56;;;;;;;27.67;21.73;;;;;;;20.52;94.57;98474.78;4972695;28;20236;-52
2022/08/19 07:24:25;;;;;;;29.07;22.20;;;;;;;20.46;94.83;98478.31;4975414;28;20316;-53
2022/08/19 07:26:54;;;;;;;27.20;22.50;;;;;;;20.59;93.00;98480.00;4970978;28;20307;-52
2022/08/19 07:29:23;;;;;;;28.30;21.03;;;;;;;20.63;92.69;98475.88;4961708;28;20284;-50
2022/08/19 07:31:50;;;;;;;26.60;21.27;;;;;;;20.79;92.82;98479.81;4972927;28;20218;-52
2022/08/19 07:34:18;;;;;;;26.53;21.70;;;;;;;20.63;93.11;98482.03;4969372;28;20719;-50
2022/08/19 07:36:46;;;;;;;27.20;21.53;;;;;;;20.76;93.12;98482.88;4965580;28;20319;-51
2022/08/19 07:39:16;;;;;;;26.40;20.60;;;;;;;20.82;93.37;98478.59;4970338;28;20256;-51
2022/08/19 07:41:43;;;;;;;24.13;19.70;;;;;;;21.03;91.78;98479.97;4972278;28;20244;-51
2022/08/19 07:44:12;;;;;;;28.63;23.27;;;;;;;20.92;89.75;98482.31;4969443;28;20234;-52
2022/08/19 07:46:44;;;;;;;27.03;22.00;;;;;;;20.92;90.93;98486.84;4967867;28;20239;-51
2022/08/19 07:49:17;;;;;;;24.70;20.30;;;;;;;21.11;89.62;98489.47;4968148;28;20254;-51
2022/08/19 07:51:46;;;;;;;28.60;20.37;;;;;;;21.17;88.36;98480.63;4975771;28;20290;-51
2022/08/19 07:54:13;;;;;;;28.60;21.67;;;;;;;21.25;87.45;98482.94;4971780;28;20293;-52
2022/08/19 07:56:40;;;;;;;28.37;22.67;;;;;;;21.34;86.88;98480.81;4976101;28;20414;-51
2022/08/19 07:59:07;;;;;;;31.37;23.00;;;;;;;21.11;86.83;98486.81;4979574;28;20244;-53
2022/08/19 08:01:34;;;;;;;30.77;24.10;;;;;;;21.02;87.99;98483.66;4969883;28;20319;-52
2022/08/19 08:09:36;;;;;;;26.53;21.17;;;;;;;21.27;86.85;98480.88;4968937;28;20236;-52
2022/08/19 08:12:06;;;;;;;24.70;20.20;;;;;;;21.42;86.32;98477.00;4979426;28;20229;-51
2022/08/19 08:14:37;;;;;;;26.17;21.20;;;;;;;21.52;84.39;98487.91;4974962;28;20247;-51
2022/08/19 08:17:05;;;;;;;28.70;22.40;;;;;;;21.35;82.66;98487.72;4972435;28;20236;-51
2022/08/19 08:19:32;;;;;;;26.03;20.57;;;;;;;21.40;84.76;98482.56;4971870;28;20221;-52
2022/08/19 08:22:01;;;;;;;30.80;22.97;;;;;;;21.51;82.52;98483.63;4974701;28;20355;-51
2022/08/19 08:24:31;;;;;;;29.47;22.27;;;;;;;21.49;81.33;98485.69;4975067;28;20238;-51
2022/08/19 08:26:59;;;;;;;27.37;21.37;;;;;;;21.57;81.83;98488.03;4978914;28;20256;-53
2022/08/19 08:29:27;;;;;;;25.67;20.70;;;;;;;21.89;80.22;98482.50;4974748;28;20224;-53
2022/08/19 08:31:53;;;;;;;25.70;20.87;;;;;;;22.08;80.52;98485.88;4959993;28;20247;-52
2022/08/19 08:34:21;;;;;;;24.40;20.73;;;;;;;22.40;77.18;98492.69;4976279;28;20236;-50
2022/08/19 08:36:48;;;;;;;22.80;19.43;;;;;;;22.63;74.51;98496.41;4975147;28;20285;-53
2022/08/19 08:39:18;;;;;;;25.67;19.17;;;;;;;22.67;72.28;98494.91;4977869;28;20694;-53
2022/08/19 08:41:53;;;;;;;24.83;21.63;;;;;;;22.83;71.77;98501.34;4975126;28;20252;-52
2022/08/19 08:44:23;;;;;;;24.90;19.83;;;;;;;22.96;71.32;98506.44;4976731;28;20285;-51
2022/08/19 08:46:54;;;;;;;22.10;19.13;;;;;;;23.28;70.85;98498.03;4968889;28;20635;-50
2022/08/19 08:49:31;;;;;;;21.90;18.67;;;;;;;23.73;69.44;98500.97;4975249;28;20221;-52
2022/08/19 08:52:03;;;;;;;21.73;18.83;;;;;;;23.65;66.61;98502.16;4972240;28;20227;-52
2022/08/19 08:54:36;;;;;;;21.10;18.83;;;;;;;23.80;64.75;98500.81;4972951;28;20248;-51
2022/08/19 08:57:08;;;;;;;21.77;18.93;;;;;;;23.73;65.08;98507.09;4974283;28;20315;-51
2022/08/19 08:59:38;;;;;;;20.90;18.27;;;;;;;23.64;63.90;98508.53;4969636;28;20241;-53
2022/08/19 09:02:06;;;;;;;23.27;19.87;;;;;;;23.55;64.89;98512.63;4967982;28;20255;-51
2022/08/19 09:04:34;;;;;;;23.20;18.63;;;;;;;23.88;64.59;98519.88;4972133;28;20263;-53
2022/08/19 09:07:17;;;;;;;23.03;19.63;;;;;;;24.07;62.44;98526.88;4968777;28;20282;-52
2022/08/19 09:09:48;;;;;;;20.70;18.57;;;;;;;24.13;62.47;98520.56;4972828;28;20217;-52
2022/08/19 09:12:24;;;;;;;24.23;18.40;;;;;;;24.15;61.89;98515.81;4972793;28;20231;-53
2022/08/19 09:14:54;;;;;;;21.47;19.03;;;;;;;24.16;62.28;98518.22;4969590;28;20616;-50
2022/08/19 09:17:30;;;;;;;22.23;17.90;;;;;;;24.36;61.56;98516.91;4963649;28;20648;-52
2022/08/19 09:20:02;;;;;;;23.83;18.50;;;;;;;24.23;63.35;98510.06;4956696;28;20260;-50
2022/08/19 09:22:29;;;;;;;26.97;19.50;;;;;;;24.57;60.21;98519.88;4972747;28;20229;-51
2022/08/19 09:24:57;;;;;;;22.50;18.57;;;;;;;24.38;60.54;98519.38;4974668;28;20241;-52
2022/08/19 09:27:43;;;;;;;19.33;17.23;;;;;;;24.42;61.69;98520.47;4967942;28;20245;-51
2022/08/19 09:30:14;;;;;;;21.03;17.07;;;;;;;24.52;60.24;98515.28;4964040;28;20588;-51
2022/08/19 09:32:42;;;;;;;21.57;18.80;;;;;;;24.72;58.73;98513.94;4947626;28;20253;-53
2022/08/19 09:35:09;;;;;;;20.37;18.17;;;;;;;24.88;57.58;98515.78;4975623;28;20327;-54
2022/08/19 09:37:37;;;;;;;22.47;16.13;;;;;;;25.04;57.92;98522.13;4973074;28;20238;-51
2022/08/19 09:40:06;;;;;;;21.80;18.43;;;;;;;25.17;56.82;98518.28;4973061;28;20224;-50
2022/08/19 09:42:33;;;;;;;20.80;17.73;;;;;;;25.04;57.65;98518.66;4972153;28;20239;-51
2022/08/19 09:45:00;;;;;;;20.60;16.30;;;;;;;24.88;57.53;98517.66;4970003;28;20232;-52
2022/08/19 09:47:27;;;;;;;20.53;17.73;;;;;;;24.70;60.18;98519.53;4971385;28;20236;-51
2022/08/19 09:49:54;;;;;;;19.07;17.00;;;;;;;24.99;58.54;98524.72;4975186;28;20721;-53
2022/08/19 09:52:21;;;;;;;24.87;18.50;;;;;;;24.83;58.76;98530.94;4973527;28;20713;-52
2022/08/19 09:54:48;;;;;;;23.03;20.07;;;;;;;24.49;57.90;98528.31;4973706;28;20228;-51
2022/08/19 09:57:17;;;;;;;20.20;17.27;;;;;;;24.52;58.88;98522.50;4974608;28;20247;-54
2022/08/19 09:59:44;;;;;;;22.60;18.83;;;;;;;24.65;57.43;98524.81;4969017;28;20236;-51
2022/08/19 10:02:11;;;;;;;21.00;17.67;;;;;;;24.53;59.21;98522.22;4970991;28;20230;-52
2022/08/19 10:07:22;;;;;;;19.13;16.40;;;;;;;24.53;57.22;98522.22;4940368;28;20220;-53
2022/08/19 10:09:48;;;;;;;18.23;15.73;;;;;;;24.79;56.38;98530.63;4971570;28;20248;-54
2022/08/19 10:12:16;;;;;;;22.33;19.93;;;;;;;24.71;55.99;98523.81;4973019;28;20810;-54
2022/08/19 10:14:44;;;;;;;25.13;19.47;;;;;;;24.85;56.00;98529.63;4969488;28;20229;-51
2022/08/19 10:17:11;;;;;;;19.77;17.67;;;;;;;24.74;56.98;98536.72;4972734;28;20324;-51
2022/08/19 10:19:38;;;;;;;21.90;19.03;;;;;;;24.81;56.88;98525.84;4970453;28;20238;-55
2022/08/19 10:22:06;;;;;;;23.67;19.53;;;;;;;24.68;56.98;98529.66;4973307;28;20260;-51
2022/08/19 10:24:34;;;;;;;24.77;18.20;;;;;;;24.94;56.30;98526.53;4973846;28;20809;-54
2022/08/19 10:27:03;;;;;;;19.37;17.27;;;;;;;25.04;55.39;98532.81;4973134;28;20258;-51
2022/08/19 10:29:34;;;;;;;18.67;16.70;;;;;;;25.24;54.97;98538.66;4977665;28;20238;-53
2022/08/19 10:32:02;;;;;;;17.40;15.50;;;;;;;25.20;54.54;98536.47;4976484;28;20238;-53
2022/08/19 10:34:29;;;;;;;17.30;15.33;;;;;;;25.62;53.89;98531.59;4977622;28;20713;-52
2022/08/19 10:36:58;;;;;;;18.10;13.97;;;;;;;25.88;54.36;98529.16;4971310;28;20254;-53
2022/08/19 10:39:24;;;;;;;20.00;16.10;;;;;;;25.87;51.13;98531.06;4971617;28;20321;-53
2022/08/19 10:41:51;;;;;;;15.63;13.73;;;;;;;25.87;52.23;98522.22;4973476;28;20218;-53
2022/08/19 10:44:18;;;;;;;19.60;15.03;;;;;;;25.29;53.25;98517.34;4981065;28;20232;-53
2022/08/19 10:46:46;;;;;;;16.00;13.97;;;;;;;25.13;54.20;98511.81;4975819;28;20235;-54
2022/08/19 10:49:13;;;;;;;17.92;15.95;;;;;;;25.02;55.52;98523.44;4976132;28;20442;-52
2022/08/19 10:56:50;;;;;;;15.70;12.27;;;;;;;25.39;51.98;98520.13;4974801;28;20240;-55
2022/08/19 10:57:13;;;;;;;14.80;12.03;;;;;;;24.88;53.83;98515.78;4978801;28;20239;-55
2022/08/19 10:59:40;;;;;;;14.57;12.40;;;;;;;25.07;53.94;98510.16;4978781;28;20681;-53
2022/08/19 11:02:11;;;;;;;14.13;12.73;;;;;;;24.75;53.33;98502.81;4976833;28;20237;-51
2022/08/19 11:04:39;;;;;;;12.87;11.47;;;;;;;25.02;54.07;98505.53;4981139;28;20242;-56
2022/08/19 11:07:07;;;;;;;11.90;10.33;;;;;;;25.64;52.58;98508.91;4977019;28;20237;-54
2022/08/19 11:09:39;;;;;;;13.63;11.60;;;;;;;26.02;50.51;98500.13;4976549;28;20238;-55
2022/08/19 11:12:08;;;;;;;11.20;9.50;;;;;;;26.64;49.81;98497.91;4981517;28;20251;-57
2022/08/19 11:14:35;;;;;;;92.20;33.77;;;;;;;26.63;50.85;98483.69;4978446;28;20306;-55
2022/08/19 11:17:02;;;;;;;16.50;10.57;;;;;;;26.78;50.00;98495.53;4976048;28;20569;-50
2022/08/19 11:19:31;;;;;;;19.30;11.57;;;;;;;26.96;47.87;98499.69;4973548;28;20222;-51
2022/08/19 11:22:02;;;;;;;14.13;10.93;;;;;;;26.88;48.18;98502.88;4973413;28;20255;-51
2022/08/19 11:24:29;;;;;;;12.70;11.17;;;;;;;27.21;48.05;98495.47;4978035;28;20234;-53
2022/08/19 11:27:04;;;;;;;13.20;11.80;;;;;;;27.05;47.58;98499.97;4979839;28;20701;-51
2022/08/19 11:29:32;;;;;;;13.47;11.87;;;;;;;26.72;48.38;98500.09;4980435;28;20668;-52
2022/08/19 11:32:01;;;;;;;12.83;10.50;;;;;;;26.96;49.14;98492.44;4978894;28;20235;-51
2022/08/19 11:34:29;;;;;;;11.87;10.77;;;;;;;27.36;48.67;98492.81;4975148;28;20266;-51
2022/08/19 11:36:58;;;;;;;12.40;11.10;;;;;;;27.47;46.49;98493.66;4976673;28;20257;-51